sensor_id;sensor_type;location;lat;lon;timestamp;temperature;humidity
73570;SHT30;61850;54.980;73.298;2023-02-01T00:01:35;-18.83;80.67
73570;SHT30;61850;54.980;73.298;2023-02-01T00:04:02;-18.84;81.02
73570;SHT30;61850;54.980;73.298;2023-02-01T00:06:28;-18.84;81.24
73570;SHT30;61850;54.980;73.298;2023-02-01T00:09:04;-18.87;81.38
73570;SHT30;61850;54.980;73.298;2023-02-01T00:11:30;-18.83;81.49
73570;SHT30;61850;54.980;73.298;2023-02-01T00:14:05;-18.80;81.38
73570;SHT30;61850;54.980;73.298;2023-02-01T00:16:31;-18.84;81.23
73570;SHT30;61850;54.980;73.298;2023-02-01T00:19:12;-18.80;81.36
73570;SHT30;61850;54.980;73.298;2023-02-01T00:21:38;-18.76;81.14
73570;SHT30;61850;54.980;73.298;2023-02-01T00:24:09;-18.74;81.05
73570;SHT30;61850;54.980;73.298;2023-02-01T00:26:37;-18.76;81.07
73570;SHT30;61850;54.980;73.298;2023-02-01T00:29:05;-18.81;81.10
73570;SHT30;61850;54.980;73.298;2023-02-01T00:31:32;-18.84;81.12
73570;SHT30;61850;54.980;73.298;2023-02-01T00:33:59;-18.80;81.35
73570;SHT30;61850;54.980;73.298;2023-02-01T00:36:25;-18.77;81.37
73570;SHT30;61850;54.980;73.298;2023-02-01T00:38:51;-18.73;81.36
73570;SHT30;61850;54.980;73.298;2023-02-01T00:41:22;-18.77;81.26
73570;SHT30;61850;54.980;73.298;2023-02-01T00:43:49;-18.84;81.42
73570;SHT30;61850;54.980;73.298;2023-02-01T00:46:16;-18.81;81.61
73570;SHT30;61850;54.980;73.298;2023-02-01T00:48:53;-18.78;81.46
73570;SHT30;61850;54.980;73.298;2023-02-01T00:51:20;-18.80;81.41
73570;SHT30;61850;54.980;73.298;2023-02-01T00:53:51;-18.80;81.58
73570;SHT30;61850;54.980;73.298;2023-02-01T00:56:28;-18.76;81.72
73570;SHT30;61850;54.980;73.298;2023-02-01T00:58:54;-18.76;81.57
73570;SHT30;61850;54.980;73.298;2023-02-01T01:01:22;-18.78;81.82
73570;SHT30;61850;54.980;73.298;2023-02-01T01:03:52;-18.77;81.59
73570;SHT30;61850;54.980;73.298;2023-02-01T01:06:20;-18.76;81.41
73570;SHT30;61850;54.980;73.298;2023-02-01T01:08:57;-18.78;81.29
73570;SHT30;61850;54.980;73.298;2023-02-01T01:11:25;-18.76;81.33
73570;SHT30;61850;54.980;73.298;2023-02-01T01:13:53;-18.83;81.64
73570;SHT30;61850;54.980;73.298;2023-02-01T01:16:24;-18.88;81.94
73570;SHT30;61850;54.980;73.298;2023-02-01T01:18:52;-18.83;82.16
73570;SHT30;61850;54.980;73.298;2023-02-01T01:21:18;-18.76;81.95
73570;SHT30;61850;54.980;73.298;2023-02-01T01:23:54;-18.73;82.00
73570;SHT30;61850;54.980;73.298;2023-02-01T01:26:22;-18.66;81.82
73570;SHT30;61850;54.980;73.298;2023-02-01T01:28:59;-18.70;81.82
73570;SHT30;61850;54.980;73.298;2023-02-01T01:31:25;-18.68;81.99
73570;SHT30;61850;54.980;73.298;2023-02-01T01:33:59;-18.67;82.29
73570;SHT30;61850;54.980;73.298;2023-02-01T01:36:28;-18.70;81.86
73570;SHT30;61850;54.980;73.298;2023-02-01T01:38:59;-18.76;81.67
73570;SHT30;61850;54.980;73.298;2023-02-01T01:41:28;-18.78;81.64
73570;SHT30;61850;54.980;73.298;2023-02-01T01:44:53;-18.78;81.33
73570;SHT30;61850;54.980;73.298;2023-02-01T01:46:51;-18.74;81.34
73570;SHT30;61850;54.980;73.298;2023-02-01T01:49:19;-18.67;81.15
73570;SHT30;61850;54.980;73.298;2023-02-01T01:51:59;-18.70;80.95
73570;SHT30;61850;54.980;73.298;2023-02-01T01:54:31;-18.71;80.94
73570;SHT30;61850;54.980;73.298;2023-02-01T01:57:09;-18.77;80.55
73570;SHT30;61850;54.980;73.298;2023-02-01T01:59:37;-18.84;80.86
73570;SHT30;61850;54.980;73.298;2023-02-01T02:02:04;-18.83;81.09
73570;SHT30;61850;54.980;73.298;2023-02-01T02:04:31;-18.87;81.49
73570;SHT30;61850;54.980;73.298;2023-02-01T02:07:02;-18.89;81.81
73570;SHT30;61850;54.980;73.298;2023-02-01T02:09:34;-18.84;82.17
73570;SHT30;61850;54.980;73.298;2023-02-01T02:12:00;-18.78;82.50
73570;SHT30;61850;54.980;73.298;2023-02-01T02:14:26;-18.73;81.89
73570;SHT30;61850;54.980;73.298;2023-02-01T02:17:02;-18.67;81.82
73570;SHT30;61850;54.980;73.298;2023-02-01T02:19:44;-18.64;81.56
73570;SHT30;61850;54.980;73.298;2023-02-01T02:22:19;-18.70;81.66
73570;SHT30;61850;54.980;73.298;2023-02-01T02:27:22;-18.67;81.25
73570;SHT30;61850;54.980;73.298;2023-02-01T02:35:30;-18.60;81.47
73570;SHT30;61850;54.980;73.298;2023-02-01T02:40:32;-18.64;81.46
73570;SHT30;61850;54.980;73.298;2023-02-01T02:46:04;-18.60;81.15
73570;SHT30;61850;54.980;73.298;2023-02-01T02:51:35;-18.47;80.77
73570;SHT30;61850;54.980;73.298;2023-02-01T02:54:36;-18.49;80.46
73570;SHT30;61850;54.980;73.298;2023-02-01T02:57:28;-18.53;80.38
73570;SHT30;61850;54.980;73.298;2023-02-01T03:00:19;-18.50;80.26
73570;SHT30;61850;54.980;73.298;2023-02-01T03:03:04;-18.46;80.20
73570;SHT30;61850;54.980;73.298;2023-02-01T03:05:54;-18.39;80.28
73570;SHT30;61850;54.980;73.298;2023-02-01T03:08:30;-18.36;80.03
73570;SHT30;61850;54.980;73.298;2023-02-01T03:11:01;-18.47;80.05
73570;SHT30;61850;54.980;73.298;2023-02-01T03:13:37;-18.53;80.11
73570;SHT30;61850;54.980;73.298;2023-02-01T03:18:36;-18.52;80.18
73570;SHT30;61850;54.980;73.298;2023-02-01T03:21:08;-18.61;80.29
73570;SHT30;61850;54.980;73.298;2023-02-01T03:23:36;-18.57;80.34
73570;SHT30;61850;54.980;73.298;2023-02-01T03:26:17;-18.52;80.08
73570;SHT30;61850;54.980;73.298;2023-02-01T03:29:05;-18.49;79.91
73570;SHT30;61850;54.980;73.298;2023-02-01T03:31:33;-18.49;80.10
73570;SHT30;61850;54.980;73.298;2023-02-01T03:34:00;-18.43;80.14
73570;SHT30;61850;54.980;73.298;2023-02-01T03:36:31;-18.43;80.25
73570;SHT30;61850;54.980;73.298;2023-02-01T03:39:19;-18.42;80.15
73570;SHT30;61850;54.980;73.298;2023-02-01T03:41:48;-18.33;80.10
73570;SHT30;61850;54.980;73.298;2023-02-01T03:49:47;-18.43;80.50
73570;SHT30;61850;54.980;73.298;2023-02-01T03:52:16;-18.30;80.33
73570;SHT30;61850;54.980;73.298;2023-02-01T03:54:44;-18.26;80.17
73570;SHT30;61850;54.980;73.298;2023-02-01T03:57:12;-18.25;79.93
73570;SHT30;61850;54.980;73.298;2023-02-01T03:59:44;-18.22;79.88
73570;SHT30;61850;54.980;73.298;2023-02-01T04:02:11;-18.16;79.86
73570;SHT30;61850;54.980;73.298;2023-02-01T04:04:42;-18.16;79.88
73570;SHT30;61850;54.980;73.298;2023-02-01T04:07:10;-18.16;79.96
73570;SHT30;61850;54.980;73.298;2023-02-01T04:09:36;-18.16;80.01
73570;SHT30;61850;54.980;73.298;2023-02-01T04:12:02;-18.14;80.14
73570;SHT30;61850;54.980;73.298;2023-02-01T04:14:27;-18.02;79.92
73570;SHT30;61850;54.980;73.298;2023-02-01T04:17:03;-17.95;79.88
73570;SHT30;61850;54.980;73.298;2023-02-01T04:19:39;-17.83;79.74
73570;SHT30;61850;54.980;73.298;2023-02-01T04:22:05;-17.67;79.42
73570;SHT30;61850;54.980;73.298;2023-02-01T04:24:42;-17.69;79.11
73570;SHT30;61850;54.980;73.298;2023-02-01T04:27:08;-17.70;79.07
73570;SHT30;61850;54.980;73.298;2023-02-01T04:29:39;-17.57;78.98
73570;SHT30;61850;54.980;73.298;2023-02-01T04:32:04;-17.56;78.89
73570;SHT30;61850;54.980;73.298;2023-02-01T04:34:40;-17.53;78.78
73570;SHT30;61850;54.980;73.298;2023-02-01T04:37:06;-17.60;78.88
73570;SHT30;61850;54.980;73.298;2023-02-01T04:39:40;-17.63;79.06
73570;SHT30;61850;54.980;73.298;2023-02-01T04:42:07;-17.36;79.22
73570;SHT30;61850;54.980;73.298;2023-02-01T04:44:34;-17.34;79.14
73570;SHT30;61850;54.980;73.298;2023-02-01T04:47:07;-17.14;78.99
73570;SHT30;61850;54.980;73.298;2023-02-01T04:49:33;-17.05;78.56
73570;SHT30;61850;54.980;73.298;2023-02-01T04:51:59;-17.00;78.52
73570;SHT30;61850;54.980;73.298;2023-02-01T04:54:25;-16.93;78.39
73570;SHT30;61850;54.980;73.298;2023-02-01T04:56:51;-16.84;78.13
73570;SHT30;61850;54.980;73.298;2023-02-01T04:59:17;-16.74;78.10
73570;SHT30;61850;54.980;73.298;2023-02-01T05:01:44;-16.66;77.78
73570;SHT30;61850;54.980;73.298;2023-02-01T05:04:15;-16.68;77.82
73570;SHT30;61850;54.980;73.298;2023-02-01T05:06:44;-16.72;78.30
73570;SHT30;61850;54.980;73.298;2023-02-01T05:09:11;-16.64;78.19
73570;SHT30;61850;54.980;73.298;2023-02-01T05:11:42;-16.60;77.87
73570;SHT30;61850;54.980;73.298;2023-02-01T05:14:27;-16.57;77.35
73570;SHT30;61850;54.980;73.298;2023-02-01T05:16:53;-16.52;77.13
73570;SHT30;61850;54.980;73.298;2023-02-01T05:19:31;-16.47;76.83
73570;SHT30;61850;54.980;73.298;2023-02-01T05:21:56;-16.45;76.67
73570;SHT30;61850;54.980;73.298;2023-02-01T05:24:23;-16.52;76.54
73570;SHT30;61850;54.980;73.298;2023-02-01T05:26:54;-16.60;76.77
73570;SHT30;61850;54.980;73.298;2023-02-01T05:29:20;-16.45;76.82
73570;SHT30;61850;54.980;73.298;2023-02-01T05:31:46;-16.32;76.66
73570;SHT30;61850;54.980;73.298;2023-02-01T05:34:13;-16.29;76.75
73570;SHT30;61850;54.980;73.298;2023-02-01T05:36:39;-16.33;77.41
73570;SHT30;61850;54.980;73.298;2023-02-01T05:39:12;-16.19;77.45
73570;SHT30;61850;54.980;73.298;2023-02-01T05:41:40;-16.08;77.35
73570;SHT30;61850;54.980;73.298;2023-02-01T05:44:16;-15.94;77.23
73570;SHT30;61850;54.980;73.298;2023-02-01T05:46:51;-15.90;76.86
73570;SHT30;61850;54.980;73.298;2023-02-01T05:49:18;-15.76;76.62
73570;SHT30;61850;54.980;73.298;2023-02-01T05:51:53;-15.71;76.37
73570;SHT30;61850;54.980;73.298;2023-02-01T05:54:19;-15.62;76.03
73570;SHT30;61850;54.980;73.298;2023-02-01T05:56:45;-15.47;75.87
73570;SHT30;61850;54.980;73.298;2023-02-01T05:59:11;-15.36;75.49
73570;SHT30;61850;54.980;73.298;2023-02-01T06:01:43;-15.40;75.50
73570;SHT30;61850;54.980;73.298;2023-02-01T06:04:09;-15.38;75.45
73570;SHT30;61850;54.980;73.298;2023-02-01T06:06:39;-15.22;75.71
73570;SHT30;61850;54.980;73.298;2023-02-01T06:09:05;-15.14;75.54
73570;SHT30;61850;54.980;73.298;2023-02-01T06:11:39;-15.08;75.23
73570;SHT30;61850;54.980;73.298;2023-02-01T06:14:05;-15.04;75.43
73570;SHT30;61850;54.980;73.298;2023-02-01T06:16:33;-14.90;75.34
73570;SHT30;61850;54.980;73.298;2023-02-01T06:18:59;-14.80;75.05
73570;SHT30;61850;54.980;73.298;2023-02-01T06:21:30;-14.76;74.66
73570;SHT30;61850;54.980;73.298;2023-02-01T06:23:56;-14.69;74.55
73570;SHT30;61850;54.980;73.298;2023-02-01T06:26:33;-14.67;74.47
73570;SHT30;61850;54.980;73.298;2023-02-01T06:28:59;-14.66;74.66
73570;SHT30;61850;54.980;73.298;2023-02-01T06:31:30;-14.48;74.44
73570;SHT30;61850;54.980;73.298;2023-02-01T06:33:57;-14.38;74.48
73570;SHT30;61850;54.980;73.298;2023-02-01T06:36:23;-14.39;74.52
73570;SHT30;61850;54.980;73.298;2023-02-01T06:38:49;-14.36;74.88
73570;SHT30;61850;54.980;73.298;2023-02-01T06:41:23;-14.28;74.83
73570;SHT30;61850;54.980;73.298;2023-02-01T06:43:55;-14.18;74.60
73570;SHT30;61850;54.980;73.298;2023-02-01T06:46:23;-13.93;74.03
73570;SHT30;61850;54.980;73.298;2023-02-01T06:48:49;-13.97;73.77
73570;SHT30;61850;54.980;73.298;2023-02-01T06:51:20;-14.06;74.04
73570;SHT30;61850;54.980;73.298;2023-02-01T06:53:47;-13.86;74.26
73570;SHT30;61850;54.980;73.298;2023-02-01T06:56:13;-13.87;74.14
73570;SHT30;61850;54.980;73.298;2023-02-01T06:58:44;-13.88;74.07
73570;SHT30;61850;54.980;73.298;2023-02-01T07:01:17;-13.81;74.01
73570;SHT30;61850;54.980;73.298;2023-02-01T07:03:47;-13.55;74.08
73570;SHT30;61850;54.980;73.298;2023-02-01T07:06:13;-13.48;73.68
73570;SHT30;61850;54.980;73.298;2023-02-01T07:08:50;-13.43;73.74
73570;SHT30;61850;54.980;73.298;2023-02-01T07:11:21;-13.36;73.77
73570;SHT30;61850;54.980;73.298;2023-02-01T07:13:47;-13.27;73.54
73570;SHT30;61850;54.980;73.298;2023-02-01T07:16:15;-13.29;73.67
73570;SHT30;61850;54.980;73.298;2023-02-01T07:18:42;-13.19;73.76
73570;SHT30;61850;54.980;73.298;2023-02-01T07:21:08;-13.10;73.68
73570;SHT30;61850;54.980;73.298;2023-02-01T07:23:37;-13.03;73.29
73570;SHT30;61850;54.980;73.298;2023-02-01T07:26:05;-12.97;73.16
73570;SHT30;61850;54.980;73.298;2023-02-01T07:28:32;-13.06;73.11
73570;SHT30;61850;54.980;73.298;2023-02-01T07:31:05;-13.08;73.28
73570;SHT30;61850;54.980;73.298;2023-02-01T07:33:31;-13.00;73.53
73570;SHT30;61850;54.980;73.298;2023-02-01T07:36:10;-12.88;73.60
73570;SHT30;61850;54.980;73.298;2023-02-01T07:38:36;-12.94;73.38
73570;SHT30;61850;54.980;73.298;2023-02-01T07:41:03;-12.80;73.33
73570;SHT30;61850;54.980;73.298;2023-02-01T07:43:32;-12.75;73.08
73570;SHT30;61850;54.980;73.298;2023-02-01T07:46:09;-12.70;73.36
73570;SHT30;61850;54.980;73.298;2023-02-01T07:48:35;-12.62;73.16
73570;SHT30;61850;54.980;73.298;2023-02-01T07:51:10;-12.58;72.93
73570;SHT30;61850;54.980;73.298;2023-02-01T07:53:41;-12.62;72.85
73570;SHT30;61850;54.980;73.298;2023-02-01T07:56:11;-12.58;73.20
73570;SHT30;61850;54.980;73.298;2023-02-01T07:58:52;-12.53;73.06
73570;SHT30;61850;54.980;73.298;2023-02-01T08:01:19;-12.55;73.33
73570;SHT30;61850;54.980;73.298;2023-02-01T08:03:57;-12.63;73.67
73570;SHT30;61850;54.980;73.298;2023-02-01T08:06:31;-12.63;73.82
73570;SHT30;61850;54.980;73.298;2023-02-01T08:08:59;-12.60;73.52
73570;SHT30;61850;54.980;73.298;2023-02-01T08:11:25;-12.50;73.34
73570;SHT30;61850;54.980;73.298;2023-02-01T08:13:52;-12.55;73.35
73570;SHT30;61850;54.980;73.298;2023-02-01T08:16:23;-12.55;73.65
73570;SHT30;61850;54.980;73.298;2023-02-01T08:18:50;-12.38;73.73
73570;SHT30;61850;54.980;73.298;2023-02-01T08:23:52;-12.42;74.18
73570;SHT30;61850;54.980;73.298;2023-02-01T08:26:22;-12.32;73.99
73570;SHT30;61850;54.980;73.298;2023-02-01T08:28:52;-12.20;74.02
73570;SHT30;61850;54.980;73.298;2023-02-01T08:31:19;-12.18;74.13
73570;SHT30;61850;54.980;73.298;2023-02-01T08:33:48;-12.13;74.01
73570;SHT30;61850;54.980;73.298;2023-02-01T08:36:19;-12.07;74.14
73570;SHT30;61850;54.980;73.298;2023-02-01T08:38:46;-11.94;74.38
73570;SHT30;61850;54.980;73.298;2023-02-01T08:41:18;-11.84;74.06
73570;SHT30;61850;54.980;73.298;2023-02-01T08:43:45;-11.81;73.30
73570;SHT30;61850;54.980;73.298;2023-02-01T08:46:11;-11.80;72.84
73570;SHT30;61850;54.980;73.298;2023-02-01T08:48:37;-11.81;73.33
73570;SHT30;61850;54.980;73.298;2023-02-01T08:51:05;-11.71;72.97
73570;SHT30;61850;54.980;73.298;2023-02-01T08:53:31;-11.66;72.98
73570;SHT30;61850;54.980;73.298;2023-02-01T08:55:57;-11.65;73.60
73570;SHT30;61850;54.980;73.298;2023-02-01T08:58:23;-11.81;74.02
73570;SHT30;61850;54.980;73.298;2023-02-01T09:00:50;-11.87;74.27
73570;SHT30;61850;54.980;73.298;2023-02-01T09:03:26;-11.81;74.33
73570;SHT30;61850;54.980;73.298;2023-02-01T09:06:07;-11.77;73.84
73570;SHT30;61850;54.980;73.298;2023-02-01T09:08:33;-11.60;73.39
73570;SHT30;61850;54.980;73.298;2023-02-01T09:11:06;-11.65;73.17
73570;SHT30;61850;54.980;73.298;2023-02-01T09:13:42;-11.71;73.18
73570;SHT30;61850;54.980;73.298;2023-02-01T09:16:08;-11.70;72.94
73570;SHT30;61850;54.980;73.298;2023-02-01T09:18:34;-11.73;72.98
73570;SHT30;61850;54.980;73.298;2023-02-01T09:21:06;-11.69;73.03
73570;SHT30;61850;54.980;73.298;2023-02-01T09:23:33;-11.66;73.51
73570;SHT30;61850;54.980;73.298;2023-02-01T09:26:02;-11.74;73.85
73570;SHT30;61850;54.980;73.298;2023-02-01T09:28:29;-11.65;73.60
73570;SHT30;61850;54.980;73.298;2023-02-01T09:31:06;-11.65;73.36
73570;SHT30;61850;54.980;73.298;2023-02-01T09:33:32;-11.70;73.20
73570;SHT30;61850;54.980;73.298;2023-02-01T09:35:59;-11.70;73.28
73570;SHT30;61850;54.980;73.298;2023-02-01T09:38:36;-11.70;73.23
73570;SHT30;61850;54.980;73.298;2023-02-01T09:41:06;-11.65;73.24
73570;SHT30;61850;54.980;73.298;2023-02-01T09:46:23;-11.62;73.18
73570;SHT30;61850;54.980;73.298;2023-02-01T09:49:09;-11.65;73.25
73570;SHT30;61850;54.980;73.298;2023-02-01T09:51:39;-11.70;73.47
73570;SHT30;61850;54.980;73.298;2023-02-01T09:54:24;-11.65;73.52
73570;SHT30;61850;54.980;73.298;2023-02-01T09:57:02;-11.63;73.58
73570;SHT30;61850;54.980;73.298;2023-02-01T09:59:33;-11.67;73.85
73570;SHT30;61850;54.980;73.298;2023-02-01T10:02:25;-11.66;73.65
73570;SHT30;61850;54.980;73.298;2023-02-01T10:04:57;-11.65;73.65
73570;SHT30;61850;54.980;73.298;2023-02-01T10:07:26;-11.60;73.59
73570;SHT30;61850;54.980;73.298;2023-02-01T10:26:00;-11.76;73.41
73570;SHT30;61850;54.980;73.298;2023-02-01T10:28:34;-11.83;73.28
73570;SHT30;61850;54.980;73.298;2023-02-01T10:31:00;-11.83;73.41
73570;SHT30;61850;54.980;73.298;2023-02-01T10:33:30;-11.84;73.18
73570;SHT30;61850;54.980;73.298;2023-02-01T10:36:00;-11.88;73.30
73570;SHT30;61850;54.980;73.298;2023-02-01T10:38:29;-11.98;73.08
73570;SHT30;61850;54.980;73.298;2023-02-01T10:41:00;-11.98;73.28
73570;SHT30;61850;54.980;73.298;2023-02-01T10:43:27;-11.97;73.40
73570;SHT30;61850;54.980;73.298;2023-02-01T10:45:59;-11.97;73.21
73570;SHT30;61850;54.980;73.298;2023-02-01T10:48:25;-11.91;73.35
73570;SHT30;61850;54.980;73.298;2023-02-01T10:55:57;-11.91;72.90
73570;SHT30;61850;54.980;73.298;2023-02-01T10:58:32;-11.83;72.92
73570;SHT30;61850;54.980;73.298;2023-02-01T11:01:03;-11.97;72.87
73570;SHT30;61850;54.980;73.298;2023-02-01T11:03:39;-12.08;73.14
73570;SHT30;61850;54.980;73.298;2023-02-01T11:06:17;-12.08;73.36
73570;SHT30;61850;54.980;73.298;2023-02-01T11:08:51;-12.16;73.33
73570;SHT30;61850;54.980;73.298;2023-02-01T11:11:23;-12.21;73.52
73570;SHT30;61850;54.980;73.298;2023-02-01T11:13:54;-12.24;73.62
73570;SHT30;61850;54.980;73.298;2023-02-01T11:16:22;-12.31;73.80
73570;SHT30;61850;54.980;73.298;2023-02-01T11:18:55;-12.38;74.04
73570;SHT30;61850;54.980;73.298;2023-02-01T11:21:21;-12.41;74.28
73570;SHT30;61850;54.980;73.298;2023-02-01T11:23:48;-12.34;74.17
73570;SHT30;61850;54.980;73.298;2023-02-01T11:26:23;-12.20;73.60
73570;SHT30;61850;54.980;73.298;2023-02-01T11:28:51;-12.17;73.00
73570;SHT30;61850;54.980;73.298;2023-02-01T11:31:18;-12.38;73.13
73570;SHT30;61850;54.980;73.298;2023-02-01T11:33:47;-12.60;73.57
73570;SHT30;61850;54.980;73.298;2023-02-01T11:36:18;-12.75;73.80
73570;SHT30;61850;54.980;73.298;2023-02-01T11:38:52;-12.79;74.07
73570;SHT30;61850;54.980;73.298;2023-02-01T11:41:21;-13.01;74.64
73570;SHT30;61850;54.980;73.298;2023-02-01T11:46:18;-13.14;75.02
73570;SHT30;61850;54.980;73.298;2023-02-01T11:48:51;-13.22;75.21
73570;SHT30;61850;54.980;73.298;2023-02-01T11:57:06;-13.53;75.99
73570;SHT30;61850;54.980;73.298;2023-02-01T11:59:49;-13.59;75.99
73570;SHT30;61850;54.980;73.298;2023-02-01T12:05:05;-13.77;76.71
73570;SHT30;61850;54.980;73.298;2023-02-01T12:08:00;-13.84;77.12
73570;SHT30;61850;54.980;73.298;2023-02-01T12:18:32;-13.91;77.94
73570;SHT30;61850;54.980;73.298;2023-02-01T12:29:02;-13.93;77.98
73570;SHT30;61850;54.980;73.298;2023-02-01T12:37:06;-13.88;78.16
73570;SHT30;61850;54.980;73.298;2023-02-01T12:39:41;-13.91;78.20
73570;SHT30;61850;54.980;73.298;2023-02-01T12:42:32;-14.01;78.73
73570;SHT30;61850;54.980;73.298;2023-02-01T12:44:56;-14.08;79.01
73570;SHT30;61850;54.980;73.298;2023-02-01T12:47:50;-14.07;78.82
73570;SHT30;61850;54.980;73.298;2023-02-01T12:53:18;-14.15;79.21
73570;SHT30;61850;54.980;73.298;2023-02-01T12:55:50;-14.22;79.27
73570;SHT30;61850;54.980;73.298;2023-02-01T12:58:22;-14.21;79.57
73570;SHT30;61850;54.980;73.298;2023-02-01T13:00:57;-14.22;79.43
73570;SHT30;61850;54.980;73.298;2023-02-01T13:06:18;-14.28;79.61
73570;SHT30;61850;54.980;73.298;2023-02-01T13:08:56;-14.28;79.65
73570;SHT30;61850;54.980;73.298;2023-02-01T13:11:28;-14.27;79.52
73570;SHT30;61850;54.980;73.298;2023-02-01T13:14:01;-14.36;79.45
73570;SHT30;61850;54.980;73.298;2023-02-01T13:16:43;-14.34;79.48
73570;SHT30;61850;54.980;73.298;2023-02-01T13:19:56;-14.34;79.46
73570;SHT30;61850;54.980;73.298;2023-02-01T13:27:36;-14.60;79.99
73570;SHT30;61850;54.980;73.298;2023-02-01T13:43:48;-14.70;79.71
73570;SHT30;61850;54.980;73.298;2023-02-01T13:46:15;-14.80;79.76
73570;SHT30;61850;54.980;73.298;2023-02-01T13:48:54;-14.90;79.75
73570;SHT30;61850;54.980;73.298;2023-02-01T13:51:33;-14.90;79.97
73570;SHT30;61850;54.980;73.298;2023-02-01T13:54:04;-14.91;80.07
73570;SHT30;61850;54.980;73.298;2023-02-01T13:56:39;-14.96;80.17
73570;SHT30;61850;54.980;73.298;2023-02-01T13:59:49;-15.00;80.18
73570;SHT30;61850;54.980;73.298;2023-02-01T14:04:53;-15.03;80.48
73570;SHT30;61850;54.980;73.298;2023-02-01T14:07:25;-15.03;80.41
73570;SHT30;61850;54.980;73.298;2023-02-01T14:09:52;-14.98;80.28
73570;SHT30;61850;54.980;73.298;2023-02-01T14:12:44;-14.97;80.10
73570;SHT30;61850;54.980;73.298;2023-02-01T14:15:22;-15.00;80.00
73570;SHT30;61850;54.980;73.298;2023-02-01T14:20:57;-15.01;79.63
73570;SHT30;61850;54.980;73.298;2023-02-01T14:23:39;-15.11;79.48
73570;SHT30;61850;54.980;73.298;2023-02-01T14:26:07;-15.15;79.64
73570;SHT30;61850;54.980;73.298;2023-02-01T14:28:36;-15.18;79.69
73570;SHT30;61850;54.980;73.298;2023-02-01T14:31:14;-15.14;79.61
73570;SHT30;61850;54.980;73.298;2023-02-01T14:33:48;-15.25;79.61
73570;SHT30;61850;54.980;73.298;2023-02-01T14:36:14;-15.22;79.87
73570;SHT30;61850;54.980;73.298;2023-02-01T14:38:49;-15.22;79.73
73570;SHT30;61850;54.980;73.298;2023-02-01T14:41:30;-15.28;79.78
73570;SHT30;61850;54.980;73.298;2023-02-01T14:49:15;-15.32;80.00
73570;SHT30;61850;54.980;73.298;2023-02-01T14:51:43;-15.34;80.18
73570;SHT30;61850;54.980;73.298;2023-02-01T14:54:21;-15.28;80.09
73570;SHT30;61850;54.980;73.298;2023-02-01T14:56:48;-15.31;80.04
73570;SHT30;61850;54.980;73.298;2023-02-01T14:59:16;-15.29;79.67
73570;SHT30;61850;54.980;73.298;2023-02-01T15:01:53;-15.31;79.54
73570;SHT30;61850;54.980;73.298;2023-02-01T15:04:26;-15.34;79.62
73570;SHT30;61850;54.980;73.298;2023-02-01T15:06:54;-15.29;79.78
73570;SHT30;61850;54.980;73.298;2023-02-01T15:09:34;-15.31;79.91
73570;SHT30;61850;54.980;73.298;2023-02-01T15:12:13;-15.28;79.79
73570;SHT30;61850;54.980;73.298;2023-02-01T15:14:45;-15.24;79.47
73570;SHT30;61850;54.980;73.298;2023-02-01T15:17:26;-15.34;79.47
73570;SHT30;61850;54.980;73.298;2023-02-01T15:19:54;-15.28;79.53
73570;SHT30;61850;54.980;73.298;2023-02-01T15:22:31;-15.22;79.40
73570;SHT30;61850;54.980;73.298;2023-02-01T15:24:58;-15.32;79.17
73570;SHT30;61850;54.980;73.298;2023-02-01T15:27:35;-15.36;79.16
73570;SHT30;61850;54.980;73.298;2023-02-01T15:30:16;-15.40;79.06
73570;SHT30;61850;54.980;73.298;2023-02-01T15:32:42;-15.42;79.19
73570;SHT30;61850;54.980;73.298;2023-02-01T15:38:34;-15.43;79.18
73570;SHT30;61850;54.980;73.298;2023-02-01T15:46:06;-15.50;79.31
73570;SHT30;61850;54.980;73.298;2023-02-01T15:48:42;-15.46;79.32
73570;SHT30;61850;54.980;73.298;2023-02-01T15:51:16;-15.39;79.21
73570;SHT30;61850;54.980;73.298;2023-02-01T15:53:45;-15.36;79.19
73570;SHT30;61850;54.980;73.298;2023-02-01T15:56:12;-15.35;79.09
73570;SHT30;61850;54.980;73.298;2023-02-01T15:58:40;-15.42;79.17
73570;SHT30;61850;54.980;73.298;2023-02-01T16:01:10;-15.42;79.41
73570;SHT30;61850;54.980;73.298;2023-02-01T16:03:42;-15.43;79.42
73570;SHT30;61850;54.980;73.298;2023-02-01T16:06:10;-15.38;79.41
73570;SHT30;61850;54.980;73.298;2023-02-01T16:08:52;-15.36;79.49
73570;SHT30;61850;54.980;73.298;2023-02-01T16:13:47;-15.42;79.53
73570;SHT30;61850;54.980;73.298;2023-02-01T16:16:15;-15.46;79.38
73570;SHT30;61850;54.980;73.298;2023-02-01T16:18:42;-15.47;79.33
73570;SHT30;61850;54.980;73.298;2023-02-01T16:21:15;-15.42;79.58
73570;SHT30;61850;54.980;73.298;2023-02-01T16:23:42;-15.45;79.51
73570;SHT30;61850;54.980;73.298;2023-02-01T16:26:09;-15.35;79.88
73570;SHT30;61850;54.980;73.298;2023-02-01T16:28:37;-15.36;80.01
73570;SHT30;61850;54.980;73.298;2023-02-01T16:31:05;-15.28;79.67
73570;SHT30;61850;54.980;73.298;2023-02-01T16:33:34;-15.35;79.29
73570;SHT30;61850;54.980;73.298;2023-02-01T16:36:01;-15.32;79.39
73570;SHT30;61850;54.980;73.298;2023-02-01T16:38:29;-15.32;79.28
73570;SHT30;61850;54.980;73.298;2023-02-01T16:41:15;-15.38;80.01
73570;SHT30;61850;54.980;73.298;2023-02-01T16:43:42;-15.34;79.96
73570;SHT30;61850;54.980;73.298;2023-02-01T16:46:15;-15.32;79.93
73570;SHT30;61850;54.980;73.298;2023-02-01T16:48:42;-15.32;80.06
73570;SHT30;61850;54.980;73.298;2023-02-01T16:51:21;-15.38;80.41
73570;SHT30;61850;54.980;73.298;2023-02-01T16:54:00;-15.31;80.64
73570;SHT30;61850;54.980;73.298;2023-02-01T16:56:39;-15.28;80.59
73570;SHT30;61850;54.980;73.298;2023-02-01T16:59:08;-15.28;80.68
73570;SHT30;61850;54.980;73.298;2023-02-01T17:01:35;-15.24;80.84
73570;SHT30;61850;54.980;73.298;2023-02-01T17:04:08;-15.18;80.86
73570;SHT30;61850;54.980;73.298;2023-02-01T17:06:35;-15.21;81.17
73570;SHT30;61850;54.980;73.298;2023-02-01T17:09:05;-15.18;81.20
73570;SHT30;61850;54.980;73.298;2023-02-01T17:11:33;-15.18;81.10
73570;SHT30;61850;54.980;73.298;2023-02-01T17:16:56;-15.18;80.78
73570;SHT30;61850;54.980;73.298;2023-02-01T17:19:25;-15.17;81.01
73570;SHT30;61850;54.980;73.298;2023-02-01T17:21:58;-15.15;81.00
73570;SHT30;61850;54.980;73.298;2023-02-01T17:24:26;-15.10;80.96
73570;SHT30;61850;54.980;73.298;2023-02-01T17:27:02;-15.11;80.90
73570;SHT30;61850;54.980;73.298;2023-02-01T17:29:32;-15.15;80.91
73570;SHT30;61850;54.980;73.298;2023-02-01T17:31:58;-15.14;80.96
73570;SHT30;61850;54.980;73.298;2023-02-01T17:34:25;-15.11;80.88
73570;SHT30;61850;54.980;73.298;2023-02-01T17:36:52;-15.01;80.89
73570;SHT30;61850;54.980;73.298;2023-02-01T17:39:19;-15.01;80.72
73570;SHT30;61850;54.980;73.298;2023-02-01T17:42:05;-15.03;80.64